sensor_id;sensor_type;location;lat;lon;timestamp;temperature;humidity
9083;DHT22;4577;48.704;9.000;2024-02-21T00:03:13;7.30;97.20
9083;DHT22;4577;48.704;9.000;2024-02-21T00:05:39;7.10;97.10
9083;DHT22;4577;48.704;9.000;2024-02-21T00:08:05;7.40;97.20
9083;DHT22;4577;48.704;9.000;2024-02-21T00:13:00;7.10;99.20
9083;DHT22;4577;48.704;9.000;2024-02-21T00:17:53;7.30;97.40
9083;DHT22;4577;48.704;9.000;2024-02-21T00:20:18;6.90;97.20
9083;DHT22;4577;48.704;9.000;2024-02-21T00:22:44;7.30;97.30
9083;DHT22;4577;48.704;9.000;2024-02-21T00:25:10;7.20;97.30
9083;DHT22;4577;48.704;9.000;2024-02-21T00:27:36;7.00;99.20
9083;DHT22;4577;48.704;9.000;2024-02-21T00:30:02;6.70;99.20
9083;DHT22;4577;48.704;9.000;2024-02-21T00:37:20;7.00;98.10
9083;DHT22;4577;48.704;9.000;2024-02-21T00:39:46;7.00;97.70
9083;DHT22;4577;48.704;9.000;2024-02-21T00:42:11;6.70;99.40
9083;DHT22;4577;48.704;9.000;2024-02-21T00:44:37;7.00;98.50
9083;DHT22;4577;48.704;9.000;2024-02-21T00:47:03;6.90;97.50
9083;DHT22;4577;48.704;9.000;2024-02-21T00:49:28;7.10;97.60
9083;DHT22;4577;48.704;9.000;2024-02-21T00:54:20;7.00;98.30
9083;DHT22;4577;48.704;9.000;2024-02-21T00:56:46;7.00;99.40
9083;DHT22;4577;48.704;9.000;2024-02-21T00:59:12;7.00;98.80
9083;DHT22;4577;48.704;9.000;2024-02-21T01:01:37;6.70;98.10
9083;DHT22;4577;48.704;9.000;2024-02-21T01:04:03;6.90;99.90
9083;DHT22;4577;48.704;9.000;2024-02-21T01:06:29;6.80;97.90
9083;DHT22;4577;48.704;9.000;2024-02-21T01:08:54;7.10;98.00
9083;DHT22;4577;48.704;9.000;2024-02-21T01:13:46;6.90;99.00
9083;DHT22;4577;48.704;9.000;2024-02-21T01:18:38;7.60;99.90
9083;DHT22;4577;48.704;9.000;2024-02-21T01:21:05;6.90;99.80
9083;DHT22;4577;48.704;9.000;2024-02-21T01:23:34;6.80;99.90
9083;DHT22;4577;48.704;9.000;2024-02-21T01:26:00;6.60;99.00
9083;DHT22;4577;48.704;9.000;2024-02-21T01:28:26;6.90;98.00
9083;DHT22;4577;48.704;9.000;2024-02-21T01:33:17;6.80;99.80
9083;DHT22;4577;48.704;9.000;2024-02-21T01:35:44;7.10;98.10
9083;DHT22;4577;48.704;9.000;2024-02-21T01:38:12;6.90;97.90
9083;DHT22;4577;48.704;9.000;2024-02-21T01:40:37;6.80;98.30
9083;DHT22;4577;48.704;9.000;2024-02-21T01:43:03;6.90;97.60
9083;DHT22;4577;48.704;9.000;2024-02-21T01:47:55;6.90;97.60
9083;DHT22;4577;48.704;9.000;2024-02-21T01:50:22;7.10;99.50
9083;DHT22;4577;48.704;9.000;2024-02-21T01:52:49;6.90;97.20
9083;DHT22;4577;48.704;9.000;2024-02-21T01:55:16;6.90;97.50
9083;DHT22;4577;48.704;9.000;2024-02-21T01:57:43;6.90;97.70
9083;DHT22;4577;48.704;9.000;2024-02-21T02:00:12;6.70;97.80
9083;DHT22;4577;48.704;9.000;2024-02-21T02:05:05;6.70;97.60
9083;DHT22;4577;48.704;9.000;2024-02-21T02:07:32;6.90;99.50
9083;DHT22;4577;48.704;9.000;2024-02-21T02:15:00;6.80;99.10
9083;DHT22;4577;48.704;9.000;2024-02-21T02:17:26;6.60;97.70
9083;DHT22;4577;48.704;9.000;2024-02-21T02:19:52;6.50;99.60
9083;DHT22;4577;48.704;9.000;2024-02-21T02:22:28;6.70;97.60
9083;DHT22;4577;48.704;9.000;2024-02-21T02:24:54;6.80;97.80
9083;DHT22;4577;48.704;9.000;2024-02-21T02:27:19;6.80;97.60
9083;DHT22;4577;48.704;9.000;2024-02-21T02:29:45;6.70;99.00
9083;DHT22;4577;48.704;9.000;2024-02-21T02:32:11;6.90;97.70
9083;DHT22;4577;48.704;9.000;2024-02-21T02:34:37;6.90;98.10
9083;DHT22;4577;48.704;9.000;2024-02-21T02:37:03;7.10;97.50
9083;DHT22;4577;48.704;9.000;2024-02-21T02:39:28;7.70;97.70
9083;DHT22;4577;48.704;9.000;2024-02-21T02:41:54;7.00;97.20
9083;DHT22;4577;48.704;9.000;2024-02-21T02:46:46;6.80;98.90
9083;DHT22;4577;48.704;9.000;2024-02-21T02:49:11;6.70;99.00
9083;DHT22;4577;48.704;9.000;2024-02-21T02:51:41;6.80;97.30
9083;DHT22;4577;48.704;9.000;2024-02-21T02:56:33;6.80;97.30
9083;DHT22;4577;48.704;9.000;2024-02-21T02:58:59;6.80;97.20
9083;DHT22;4577;48.704;9.000;2024-02-21T03:01:25;6.80;99.20
9083;DHT22;4577;48.704;9.000;2024-02-21T03:03:50;6.60;98.60
9083;DHT22;4577;48.704;9.000;2024-02-21T03:08:42;6.80;97.60
9083;DHT22;4577;48.704;9.000;2024-02-21T03:11:08;7.00;97.70
9083;DHT22;4577;48.704;9.000;2024-02-21T03:13:34;7.30;97.70
9083;DHT22;4577;48.704;9.000;2024-02-21T03:18:25;6.60;99.40
9083;DHT22;4577;48.704;9.000;2024-02-21T03:23:17;6.50;98.10
9083;DHT22;4577;48.704;9.000;2024-02-21T03:25:43;6.40;99.00
9083;DHT22;4577;48.704;9.000;2024-02-21T03:30:34;6.40;98.50
9083;DHT22;4577;48.704;9.000;2024-02-21T03:33:00;6.50;98.70
9083;DHT22;4577;48.704;9.000;2024-02-21T03:37:53;6.50;97.00
9083;DHT22;4577;48.704;9.000;2024-02-21T03:40:18;6.70;98.10
9083;DHT22;4577;48.704;9.000;2024-02-21T03:42:44;6.60;98.90
9083;DHT22;4577;48.704;9.000;2024-02-21T03:45:10;6.60;97.90
9083;DHT22;4577;48.704;9.000;2024-02-21T03:47:35;6.60;98.90
9083;DHT22;4577;48.704;9.000;2024-02-21T03:50:01;6.40;98.70
9083;DHT22;4577;48.704;9.000;2024-02-21T03:52:27;7.30;97.10
9083;DHT22;4577;48.704;9.000;2024-02-21T03:54:53;6.50;97.30
9083;DHT22;4577;48.704;9.000;2024-02-21T03:59:46;6.20;98.60
9083;DHT22;4577;48.704;9.000;2024-02-21T04:02:15;6.10;96.60
9083;DHT22;4577;48.704;9.000;2024-02-21T04:04:46;6.90;97.10
9083;DHT22;4577;48.704;9.000;2024-02-21T04:07:13;6.40;97.20
9083;DHT22;4577;48.704;9.000;2024-02-21T04:09:39;6.50;98.30
9083;DHT22;4577;48.704;9.000;2024-02-21T04:12:05;6.00;96.10
9083;DHT22;4577;48.704;9.000;2024-02-21T04:14:31;6.50;97.80
9083;DHT22;4577;48.704;9.000;2024-02-21T04:16:57;6.50;97.10
9083;DHT22;4577;48.704;9.000;2024-02-21T04:21:49;6.70;97.70
9083;DHT22;4577;48.704;9.000;2024-02-21T04:24:14;6.50;96.30
9083;DHT22;4577;48.704;9.000;2024-02-21T04:26:40;6.50;96.50
9083;DHT22;4577;48.704;9.000;2024-02-21T04:29:06;6.10;96.00
9083;DHT22;4577;48.704;9.000;2024-02-21T04:31:34;6.50;96.00
9083;DHT22;4577;48.704;9.000;2024-02-21T04:34:00;6.50;96.70
9083;DHT22;4577;48.704;9.000;2024-02-21T04:36:26;6.60;97.20
9083;DHT22;4577;48.704;9.000;2024-02-21T04:41:17;6.70;96.00
9083;DHT22;4577;48.704;9.000;2024-02-21T04:43:43;6.40;97.40
9083;DHT22;4577;48.704;9.000;2024-02-21T04:46:09;6.70;95.80
9083;DHT22;4577;48.704;9.000;2024-02-21T04:48:35;7.40;97.60
9083;DHT22;4577;48.704;9.000;2024-02-21T04:51:01;7.10;95.70
9083;DHT22;4577;48.704;9.000;2024-02-21T04:58:18;6.80;95.20
9083;DHT22;4577;48.704;9.000;2024-02-21T05:00:44;6.40;95.00
9083;DHT22;4577;48.704;9.000;2024-02-21T05:03:10;6.70;95.70
9083;DHT22;4577;48.704;9.000;2024-02-21T05:08:02;6.30;96.90
9083;DHT22;4577;48.704;9.000;2024-02-21T05:10:28;6.10;95.90
9083;DHT22;4577;48.704;9.000;2024-02-21T05:12:54;6.10;95.10
9083;DHT22;4577;48.704;9.000;2024-02-21T05:17:45;6.20;97.40
9083;DHT22;4577;48.704;9.000;2024-02-21T05:20:11;6.40;95.50
9083;DHT22;4577;48.704;9.000;2024-02-21T05:22:37;6.40;95.50
9083;DHT22;4577;48.704;9.000;2024-02-21T05:29:55;6.30;97.80
9083;DHT22;4577;48.704;9.000;2024-02-21T05:32:20;6.30;97.40
9083;DHT22;4577;48.704;9.000;2024-02-21T05:34:49;6.30;97.30
9083;DHT22;4577;48.704;9.000;2024-02-21T05:37:15;5.80;97.10
9083;DHT22;4577;48.704;9.000;2024-02-21T05:39:41;6.00;95.70
9083;DHT22;4577;48.704;9.000;2024-02-21T05:42:06;5.90;95.70
9083;DHT22;4577;48.704;9.000;2024-02-21T05:44:32;6.10;95.70
9083;DHT22;4577;48.704;9.000;2024-02-21T05:51:50;6.20;95.50
9083;DHT22;4577;48.704;9.000;2024-02-21T05:54:15;6.20;96.70
9083;DHT22;4577;48.704;9.000;2024-02-21T05:56:45;6.10;96.90
9083;DHT22;4577;48.704;9.000;2024-02-21T05:59:11;6.30;96.90
9083;DHT22;4577;48.704;9.000;2024-02-21T06:11:24;6.40;96.30
9083;DHT22;4577;48.704;9.000;2024-02-21T06:13:49;6.10;97.10
9083;DHT22;4577;48.704;9.000;2024-02-21T06:23:33;6.00;97.00
9083;DHT22;4577;48.704;9.000;2024-02-21T06:35:43;6.40;95.50
9083;DHT22;4577;48.704;9.000;2024-02-21T06:38:11;6.20;96.00
9083;DHT22;4577;48.704;9.000;2024-02-21T06:45:31;6.00;95.90
9083;DHT22;4577;48.704;9.000;2024-02-21T06:50:23;5.80;96.90
9083;DHT22;4577;48.704;9.000;2024-02-21T06:55:14;6.20;95.50
9083;DHT22;4577;48.704;9.000;2024-02-21T06:57:41;6.00;96.90
9083;DHT22;4577;48.704;9.000;2024-02-21T07:00:07;6.30;97.00
9083;DHT22;4577;48.704;9.000;2024-02-21T07:02:34;6.30;97.00
9083;DHT22;4577;48.704;9.000;2024-02-21T07:05:00;6.20;94.90
9083;DHT22;4577;48.704;9.000;2024-02-21T07:07:25;6.40;95.30
9083;DHT22;4577;48.704;9.000;2024-02-21T07:14:45;6.00;97.20
9083;DHT22;4577;48.704;9.000;2024-02-21T07:17:10;6.00;96.50
9083;DHT22;4577;48.704;9.000;2024-02-21T07:22:02;5.80;96.60
9083;DHT22;4577;48.704;9.000;2024-02-21T07:26:54;6.00;97.00
9083;DHT22;4577;48.704;9.000;2024-02-21T07:29:21;6.00;95.90
9083;DHT22;4577;48.704;9.000;2024-02-21T07:31:47;6.40;95.10
9083;DHT22;4577;48.704;9.000;2024-02-21T07:41:34;6.20;95.00
9083;DHT22;4577;48.704;9.000;2024-02-21T07:44:00;6.50;94.60
9083;DHT22;4577;48.704;9.000;2024-02-21T07:46:25;6.70;95.10
9083;DHT22;4577;48.704;9.000;2024-02-21T07:48:51;6.60;96.10
9083;DHT22;4577;48.704;9.000;2024-02-21T07:51:17;6.40;95.40
9083;DHT22;4577;48.704;9.000;2024-02-21T07:58:41;6.70;96.90
9083;DHT22;4577;48.704;9.000;2024-02-21T08:01:07;6.50;95.70
9083;DHT22;4577;48.704;9.000;2024-02-21T08:03:33;6.80;96.30
9083;DHT22;4577;48.704;9.000;2024-02-21T08:05:59;6.70;95.60
9083;DHT22;4577;48.704;9.000;2024-02-21T08:08:25;6.90;95.50
9083;DHT22;4577;48.704;9.000;2024-02-21T08:13:18;6.80;94.60
9083;DHT22;4577;48.704;9.000;2024-02-21T08:18:10;6.90;94.80
9083;DHT22;4577;48.704;9.000;2024-02-21T08:20:35;7.10;95.10
9083;DHT22;4577;48.704;9.000;2024-02-21T08:25:27;7.40;96.10
9083;DHT22;4577;48.704;9.000;2024-02-21T08:27:58;7.30;94.10
9083;DHT22;4577;48.704;9.000;2024-02-21T08:30:24;7.60;95.70
9083;DHT22;4577;48.704;9.000;2024-02-21T08:32:50;7.40;93.70
9083;DHT22;4577;48.704;9.000;2024-02-21T08:35:15;7.40;95.40
9083;DHT22;4577;48.704;9.000;2024-02-21T08:37:44;7.40;93.40
9083;DHT22;4577;48.704;9.000;2024-02-21T08:40:10;7.30;93.30
9083;DHT22;4577;48.704;9.000;2024-02-21T08:42:38;7.40;95.20
9083;DHT22;4577;48.704;9.000;2024-02-21T08:45:04;7.40;93.20
9083;DHT22;4577;48.704;9.000;2024-02-21T08:49:56;7.60;95.40
9083;DHT22;4577;48.704;9.000;2024-02-21T08:52:22;7.50;93.20
9083;DHT22;4577;48.704;9.000;2024-02-21T08:54:47;7.40;93.30
9083;DHT22;4577;48.704;9.000;2024-02-21T08:57:16;7.40;93.60
9083;DHT22;4577;48.704;9.000;2024-02-21T09:11:54;7.70;94.10
9083;DHT22;4577;48.704;9.000;2024-02-21T09:14:20;8.50;92.90
9083;DHT22;4577;48.704;9.000;2024-02-21T09:16:45;7.80;94.20
9083;DHT22;4577;48.704;9.000;2024-02-21T09:19:11;7.90;92.40
9083;DHT22;4577;48.704;9.000;2024-02-21T09:21:37;7.90;92.40
9083;DHT22;4577;48.704;9.000;2024-02-21T09:24:04;7.80;92.70
9083;DHT22;4577;48.704;9.000;2024-02-21T09:26:30;8.10;92.90
9083;DHT22;4577;48.704;9.000;2024-02-21T09:28:56;8.20;93.30
9083;DHT22;4577;48.704;9.000;2024-02-21T09:36:14;8.00;92.80
9083;DHT22;4577;48.704;9.000;2024-02-21T09:38:40;8.20;92.10
9083;DHT22;4577;48.704;9.000;2024-02-21T09:41:25;8.10;91.80
9083;DHT22;4577;48.704;9.000;2024-02-21T09:43:50;8.00;91.60
9083;DHT22;4577;48.704;9.000;2024-02-21T09:49:31;8.30;91.60
9083;DHT22;4577;48.704;9.000;2024-02-21T09:51:51;8.50;91.60
9083;DHT22;4577;48.704;9.000;2024-02-21T09:56:46;9.10;91.10
9083;DHT22;4577;48.704;9.000;2024-02-21T09:59:16;8.90;92.80
9083;DHT22;4577;48.704;9.000;2024-02-21T10:01:43;8.90;92.80
9083;DHT22;4577;48.704;9.000;2024-02-21T10:04:12;8.60;90.40
9083;DHT22;4577;48.704;9.000;2024-02-21T10:06:38;8.60;92.20
9083;DHT22;4577;48.704;9.000;2024-02-21T10:09:06;8.60;92.00
9083;DHT22;4577;48.704;9.000;2024-02-21T10:11:32;8.70;92.40
9083;DHT22;4577;48.704;9.000;2024-02-21T10:14:05;8.70;90.10
9083;DHT22;4577;48.704;9.000;2024-02-21T10:16:31;8.70;90.90
9083;DHT22;4577;48.704;9.000;2024-02-21T10:23:50;8.80;91.30
9083;DHT22;4577;48.704;9.000;2024-02-21T10:26:19;9.00;91.60
9083;DHT22;4577;48.704;9.000;2024-02-21T10:28:46;8.90;91.90
9083;DHT22;4577;48.704;9.000;2024-02-21T10:31:22;8.70;92.30
9083;DHT22;4577;48.704;9.000;2024-02-21T10:33:59;9.10;92.10
9083;DHT22;4577;48.704;9.000;2024-02-21T10:36:28;9.10;92.10
9083;DHT22;4577;48.704;9.000;2024-02-21T10:38:54;9.20;89.80
9083;DHT22;4577;48.704;9.000;2024-02-21T10:41:21;9.20;90.60
9083;DHT22;4577;48.704;9.000;2024-02-21T10:43:53;9.30;90.60
9083;DHT22;4577;48.704;9.000;2024-02-21T10:46:21;9.20;90.70
9083;DHT22;4577;48.704;9.000;2024-02-21T10:48:51;9.70;88.10
9083;DHT22;4577;48.704;9.000;2024-02-21T10:51:20;9.50;88.60
9083;DHT22;4577;48.704;9.000;2024-02-21T10:56:31;9.80;89.00
9083;DHT22;4577;48.704;9.000;2024-02-21T10:59:01;9.70;90.90
9083;DHT22;4577;48.704;9.000;2024-02-21T11:01:28;9.60;88.30
9083;DHT22;4577;48.704;9.000;2024-02-21T11:03:58;9.40;90.10
9083;DHT22;4577;48.704;9.000;2024-02-21T11:06:26;9.60;90.20
9083;DHT22;4577;48.704;9.000;2024-02-21T11:09:04;9.40;88.70
9083;DHT22;4577;48.704;9.000;2024-02-21T11:11:50;9.60;87.80
9083;DHT22;4577;48.704;9.000;2024-02-21T11:14:20;9.70;85.20
9083;DHT22;4577;48.704;9.000;2024-02-21T11:16:47;10.30;82.90
9083;DHT22;4577;48.704;9.000;2024-02-21T11:19:21;10.60;86.90
9083;DHT22;4577;48.704;9.000;2024-02-21T11:21:48;9.50;82.80
9083;DHT22;4577;48.704;9.000;2024-02-21T11:24:14;9.80;85.00
9083;DHT22;4577;48.704;9.000;2024-02-21T11:26:50;9.80;85.80
9083;DHT22;4577;48.704;9.000;2024-02-21T11:29:23;10.00;83.70
9083;DHT22;4577;48.704;9.000;2024-02-21T11:31:49;10.10;80.30
9083;DHT22;4577;48.704;9.000;2024-02-21T11:34:18;10.10;81.90
9083;DHT22;4577;48.704;9.000;2024-02-21T11:36:53;9.90;90.50
9083;DHT22;4577;48.704;9.000;2024-02-21T11:39:20;10.30;82.20
9083;DHT22;4577;48.704;9.000;2024-02-21T11:41:58;10.20;80.40
9083;DHT22;4577;48.704;9.000;2024-02-21T11:44:24;10.50;79.00
9083;DHT22;4577;48.704;9.000;2024-02-21T11:46:50;10.40;80.10
9083;DHT22;4577;48.704;9.000;2024-02-21T11:49:16;10.20;78.80
9083;DHT22;4577;48.704;9.000;2024-02-21T11:51:42;10.40;79.60
9083;DHT22;4577;48.704;9.000;2024-02-21T11:54:07;10.20;75.10
9083;DHT22;4577;48.704;9.000;2024-02-21T11:56:35;10.40;76.60
9083;DHT22;4577;48.704;9.000;2024-02-21T11:59:00;10.30;79.30
9083;DHT22;4577;48.704;9.000;2024-02-21T12:01:26;10.30;75.30
9083;DHT22;4577;48.704;9.000;2024-02-21T12:03:52;10.50;76.10
9083;DHT22;4577;48.704;9.000;2024-02-21T12:06:17;10.40;78.70
9083;DHT22;4577;48.704;9.000;2024-02-21T12:08:45;10.50;76.30
9083;DHT22;4577;48.704;9.000;2024-02-21T12:11:23;10.60;74.40
9083;DHT22;4577;48.704;9.000;2024-02-21T12:14:04;10.60;73.70
9083;DHT22;4577;48.704;9.000;2024-02-21T12:16:32;10.60;74.10
9083;DHT22;4577;48.704;9.000;2024-02-21T12:19:00;10.30;76.80
9083;DHT22;4577;48.704;9.000;2024-02-21T12:21:29;10.80;76.10
9083;DHT22;4577;48.704;9.000;2024-02-21T12:23:55;11.30;76.30
9083;DHT22;4577;48.704;9.000;2024-02-21T12:26:22;11.20;76.30
9083;DHT22;4577;48.704;9.000;2024-02-21T12:28:47;11.00;76.50
9083;DHT22;4577;48.704;9.000;2024-02-21T12:31:13;10.70;76.40
9083;DHT22;4577;48.704;9.000;2024-02-21T12:33:39;11.20;75.20
9083;DHT22;4577;48.704;9.000;2024-02-21T12:36:05;11.00;72.20
9083;DHT22;4577;48.704;9.000;2024-02-21T12:38:30;11.10;71.00
9083;DHT22;4577;48.704;9.000;2024-02-21T12:40:56;11.10;71.00
9083;DHT22;4577;48.704;9.000;2024-02-21T12:43:26;11.10;72.80
9083;DHT22;4577;48.704;9.000;2024-02-21T12:45:51;11.20;74.30
9083;DHT22;4577;48.704;9.000;2024-02-21T12:48:18;11.20;72.20
9083;DHT22;4577;48.704;9.000;2024-02-21T12:50:50;11.40;68.60
9083;DHT22;4577;48.704;9.000;2024-02-21T12:53:19;11.40;67.00
9083;DHT22;4577;48.704;9.000;2024-02-21T12:55:50;11.20;65.30
9083;DHT22;4577;48.704;9.000;2024-02-21T12:58:16;11.50;69.50
9083;DHT22;4577;48.704;9.000;2024-02-21T13:00:42;11.40;66.20
9083;DHT22;4577;48.704;9.000;2024-02-21T13:03:08;11.40;68.70
9083;DHT22;4577;48.704;9.000;2024-02-21T13:08:05;11.70;67.80
9083;DHT22;4577;48.704;9.000;2024-02-21T13:10:31;11.30;69.80
9083;DHT22;4577;48.704;9.000;2024-02-21T13:12:58;11.30;68.40
9083;DHT22;4577;48.704;9.000;2024-02-21T13:15:24;11.60;65.20
9083;DHT22;4577;48.704;9.000;2024-02-21T13:20:16;11.60;67.60
9083;DHT22;4577;48.704;9.000;2024-02-21T13:22:41;11.50;67.10
9083;DHT22;4577;48.704;9.000;2024-02-21T13:25:07;11.70;63.10
9083;DHT22;4577;48.704;9.000;2024-02-21T13:27:34;11.60;64.90
9083;DHT22;4577;48.704;9.000;2024-02-21T13:30:00;11.80;64.00
9083;DHT22;4577;48.704;9.000;2024-02-21T13:32:28;11.70;61.00
9083;DHT22;4577;48.704;9.000;2024-02-21T13:34:54;12.00;63.70
9083;DHT22;4577;48.704;9.000;2024-02-21T13:39:47;11.80;59.50
9083;DHT22;4577;48.704;9.000;2024-02-21T13:42:13;11.70;62.40
9083;DHT22;4577;48.704;9.000;2024-02-21T13:44:38;11.60;62.50
9083;DHT22;4577;48.704;9.000;2024-02-21T13:47:04;11.20;62.50
9083;DHT22;4577;48.704;9.000;2024-02-21T13:49:31;11.60;63.40
9083;DHT22;4577;48.704;9.000;2024-02-21T13:51:56;11.70;59.60
9083;DHT22;4577;48.704;9.000;2024-02-21T13:54:22;11.80;62.80
9083;DHT22;4577;48.704;9.000;2024-02-21T13:56:47;11.80;59.60
9083;DHT22;4577;48.704;9.000;2024-02-21T13:59:13;11.80;59.10
9083;DHT22;4577;48.704;9.000;2024-02-21T14:01:39;12.20;60.80
9083;DHT22;4577;48.704;9.000;2024-02-21T14:04:04;12.40;58.10
9083;DHT22;4577;48.704;9.000;2024-02-21T14:06:30;12.00;60.30
9083;DHT22;4577;48.704;9.000;2024-02-21T14:08:56;11.60;57.90
9083;DHT22;4577;48.704;9.000;2024-02-21T14:11:22;11.60;58.10
9083;DHT22;4577;48.704;9.000;2024-02-21T14:13:48;11.90;57.70
9083;DHT22;4577;48.704;9.000;2024-02-21T14:16:14;11.80;60.40
9083;DHT22;4577;48.704;9.000;2024-02-21T14:18:40;11.90;58.10
9083;DHT22;4577;48.704;9.000;2024-02-21T14:21:09;11.80;54.70
9083;DHT22;4577;48.704;9.000;2024-02-21T14:23:38;12.20;56.20
9083;DHT22;4577;48.704;9.000;2024-02-21T14:26:05;12.00;57.30
9083;DHT22;4577;48.704;9.000;2024-02-21T14:28:32;12.10;54.00
9083;DHT22;4577;48.704;9.000;2024-02-21T14:30:59;12.10;54.10
9083;DHT22;4577;48.704;9.000;2024-02-21T14:33:26;12.00;54.60
9083;DHT22;4577;48.704;9.000;2024-02-21T14:35:52;12.20;57.70
9083;DHT22;4577;48.704;9.000;2024-02-21T14:38:19;12.00;54.90
9083;DHT22;4577;48.704;9.000;2024-02-21T14:40:45;12.00;52.10
9083;DHT22;4577;48.704;9.000;2024-02-21T14:43:11;11.90;51.90
9083;DHT22;4577;48.704;9.000;2024-02-21T14:45:36;12.60;57.80
9083;DHT22;4577;48.704;9.000;2024-02-21T14:48:04;12.20;54.70
9083;DHT22;4577;48.704;9.000;2024-02-21T14:50:30;11.50;57.10
9083;DHT22;4577;48.704;9.000;2024-02-21T14:52:55;12.00;55.10
9083;DHT22;4577;48.704;9.000;2024-02-21T14:55:21;11.90;55.90
9083;DHT22;4577;48.704;9.000;2024-02-21T14:57:47;11.90;56.90
9083;DHT22;4577;48.704;9.000;2024-02-21T15:00:13;12.20;59.50
9083;DHT22;4577;48.704;9.000;2024-02-21T15:02:39;12.20;57.10
9083;DHT22;4577;48.704;9.000;2024-02-21T15:05:04;12.00;57.40
9083;DHT22;4577;48.704;9.000;2024-02-21T15:07:31;12.10;59.80
9083;DHT22;4577;48.704;9.000;2024-02-21T15:09:57;12.30;60.80
9083;DHT22;4577;48.704;9.000;2024-02-21T15:12:23;12.00;57.50
9083;DHT22;4577;48.704;9.000;2024-02-21T15:14:49;12.00;56.70
9083;DHT22;4577;48.704;9.000;2024-02-21T15:17:15;12.00;58.30
9083;DHT22;4577;48.704;9.000;2024-02-21T15:19:41;11.80;60.90
9083;DHT22;4577;48.704;9.000;2024-02-21T15:22:13;12.00;59.90
9083;DHT22;4577;48.704;9.000;2024-02-21T15:24:39;12.00;58.00
9083;DHT22;4577;48.704;9.000;2024-02-21T15:27:05;12.00;57.90
9083;DHT22;4577;48.704;9.000;2024-02-21T15:29:31;11.90;58.00
9083;DHT22;4577;48.704;9.000;2024-02-21T15:31:57;11.90;59.50
9083;DHT22;4577;48.704;9.000;2024-02-21T15:34:23;11.80;61.80
9083;DHT22;4577;48.704;9.000;2024-02-21T15:36:49;11.90;60.00
9083;DHT22;4577;48.704;9.000;2024-02-21T15:39:14;12.00;64.40
9083;DHT22;4577;48.704;9.000;2024-02-21T15:41:40;11.80;65.90
9083;DHT22;4577;48.704;9.000;2024-02-21T15:44:06;11.80;62.20
9083;DHT22;4577;48.704;9.000;2024-02-21T15:46:32;11.80;63.50
9083;DHT22;4577;48.704;9.000;2024-02-21T15:49:01;11.80;64.10
9083;DHT22;4577;48.704;9.000;2024-02-21T15:51:27;11.80;65.70
9083;DHT22;4577;48.704;9.000;2024-02-21T15:53:53;11.70;66.60
9083;DHT22;4577;48.704;9.000;2024-02-21T15:56:18;11.70;68.80
9083;DHT22;4577;48.704;9.000;2024-02-21T15:58:45;11.90;71.40
9083;DHT22;4577;48.704;9.000;2024-02-21T16:01:11;11.70;68.90
9083;DHT22;4577;48.704;9.000;2024-02-21T16:03:37;11.70;68.30
9083;DHT22;4577;48.704;9.000;2024-02-21T16:06:04;12.00;72.50
9083;DHT22;4577;48.704;9.000;2024-02-21T16:08:29;11.60;72.00
9083;DHT22;4577;48.704;9.000;2024-02-21T16:10:55;11.60;72.20
9083;DHT22;4577;48.704;9.000;2024-02-21T16:13:21;11.60;72.20
9083;DHT22;4577;48.704;9.000;2024-02-21T16:15:47;11.70;69.60
9083;DHT22;4577;48.704;9.000;2024-02-21T16:18:14;11.70;70.20
9083;DHT22;4577;48.704;9.000;2024-02-21T16:20:40;12.10;73.50
9083;DHT22;4577;48.704;9.000;2024-02-21T16:23:06;11.60;73.40
9083;DHT22;4577;48.704;9.000;2024-02-21T16:25:33;11.60;70.90
9083;DHT22;4577;48.704;9.000;2024-02-21T16:27:59;11.60;74.10
9083;DHT22;4577;48.704;9.000;2024-02-21T16:30:26;11.00;73.70
9083;DHT22;4577;48.704;9.000;2024-02-21T16:32:52;11.60;71.20
9083;DHT22;4577;48.704;9.000;2024-02-21T16:35:18;11.60;70.70
9083;DHT22;4577;48.704;9.000;2024-02-21T16:37:44;11.60;71.60
9083;DHT22;4577;48.704;9.000;2024-02-21T16:40:11;11.80;73.80
9083;DHT22;4577;48.704;9.000;2024-02-21T16:42:37;11.40;74.40
9083;DHT22;4577;48.704;9.000;2024-02-21T16:45:03;11.80;73.10
9083;DHT22;4577;48.704;9.000;2024-02-21T16:47:30;11.40;69.00
9083;DHT22;4577;48.704;9.000;2024-02-21T16:52:23;11.50;69.60
9083;DHT22;4577;48.704;9.000;2024-02-21T16:54:49;11.30;68.10
9083;DHT22;4577;48.704;9.000;2024-02-21T16:57:14;11.40;68.70
9083;DHT22;4577;48.704;9.000;2024-02-21T16:59:40;11.30;71.00
9083;DHT22;4577;48.704;9.000;2024-02-21T17:02:06;11.30;70.80
9083;DHT22;4577;48.704;9.000;2024-02-21T17:04:32;10.80;70.10
9083;DHT22;4577;48.704;9.000;2024-02-21T17:06:58;11.30;66.30
9083;DHT22;4577;48.704;9.000;2024-02-21T17:09:23;11.20;67.70
9083;DHT22;4577;48.704;9.000;2024-02-21T17:11:49;11.20;67.20
9083;DHT22;4577;48.704;9.000;2024-02-21T17:14:17;11.20;69.30
9083;DHT22;4577;48.704;9.000;2024-02-21T17:16:42;11.40;67.70
9083;DHT22;4577;48.704;9.000;2024-02-21T17:19:08;11.30;67.00
9083;DHT22;4577;48.704;9.000;2024-02-21T17:21:35;11.40;68.80
9083;DHT22;4577;48.704;9.000;2024-02-21T17:24:01;11.20;68.90
9083;DHT22;4577;48.704;9.000;2024-02-21T17:26:27;11.40;66.30
9083;DHT22;4577;48.704;9.000;2024-02-21T17:28:53;11.40;68.30
9083;DHT22;4577;48.704;9.000;2024-02-21T17:31:20;11.40;66.10
9083;DHT22;4577;48.704;9.000;2024-02-21T17:33:45;11.40;65.50
9083;DHT22;4577;48.704;9.000;2024-02-21T17:36:11;11.30;68.00
9083;DHT22;4577;48.704;9.000;2024-02-21T17:38:37;11.40;65.60
9083;DHT22;4577;48.704;9.000;2024-02-21T17:41:03;11.40;64.10
9083;DHT22;4577;48.704;9.000;2024-02-21T17:43:29;11.30;64.50
9083;DHT22;4577;48.704;9.000;2024-02-21T17:46:00;11.20;62.70
9083;DHT22;4577;48.704;9.000;2024-02-21T17:48:25;11.30;63.30
9083;DHT22;4577;48.704;9.000;2024-02-21T17:50:52;11.30;64.10
9083;DHT22;4577;48.704;9.000;2024-02-21T17:53:18;11.20;62.50
9083;DHT22;4577;48.704;9.000;2024-02-21T17:55:43;11.40;65.80
9083;DHT22;4577;48.704;9.000;2024-02-21T17:58:09;11.30;63.50
9083;DHT22;4577;48.704;9.000;2024-02-21T18:00:35;11.30;63.80
9083;DHT22;4577;48.704;9.000;2024-02-21T18:03:01;11.30;63.40
9083;DHT22;4577;48.704;9.000;2024-02-21T18:05:28;11.10;64.10
9083;DHT22;4577;48.704;9.000;2024-02-21T18:07:54;11.30;62.20
9083;DHT22;4577;48.704;9.000;2024-02-21T18:10:20;11.20;63.30
9083;DHT22;4577;48.704;9.000;2024-02-21T18:12:47;11.30;61.60
9083;DHT22;4577;48.704;9.000;2024-02-21T18:17:38;11.20;65.90
9083;DHT22;4577;48.704;9.000;2024-02-21T18:20:06;11.30;64.50
9083;DHT22;4577;48.704;9.000;2024-02-21T18:22:33;11.20;61.20
9083;DHT22;4577;48.704;9.000;2024-02-21T18:25:00;11.20;60.20
9083;DHT22;4577;48.704;9.000;2024-02-21T18:27:26;11.10;63.30
9083;DHT22;4577;48.704;9.000;2024-02-21T18:29:53;10.90;62.40
9083;DHT22;4577;48.704;9.000;2024-02-21T18:32:18;11.20;60.40
9083;DHT22;4577;48.704;9.000;2024-02-21T18:34:44;11.30;60.50
9083;DHT22;4577;48.704;9.000;2024-02-21T18:37:10;11.20;59.70
9083;DHT22;4577;48.704;9.000;2024-02-21T18:39:35;11.00;62.40
9083;DHT22;4577;48.704;9.000;2024-02-21T18:42:02;11.40;62.30
9083;DHT22;4577;48.704;9.000;2024-02-21T18:44:28;10.70;61.50
9083;DHT22;4577;48.704;9.000;2024-02-21T18:46:53;11.00;59.20
9083;DHT22;4577;48.704;9.000;2024-02-21T18:49:19;11.20;59.70
9083;DHT22;4577;48.704;9.000;2024-02-21T18:51:45;11.00;59.30
9083;DHT22;4577;48.704;9.000;2024-02-21T18:54:11;11.10;59.60
9083;DHT22;4577;48.704;9.000;2024-02-21T18:56:37;11.10;59.30
9083;DHT22;4577;48.704;9.000;2024-02-21T18:59:02;11.80;62.10
9083;DHT22;4577;48.704;9.000;2024-02-21T19:01:31;11.10;59.00
9083;DHT22;4577;48.704;9.000;2024-02-21T19:03:56;11.10;61.80
9083;DHT22;4577;48.704;9.000;2024-02-21T19:06:22;11.10;62.00
9083;DHT22;4577;48.704;9.000;2024-02-21T19:08:48;11.20;59.50
9083;DHT22;4577;48.704;9.000;2024-02-21T19:11:15;11.20;63.60